Terminal Aerodrome Forecast
Issued by NWS Memphis, TN

Current Version | Previous Version | Text Only | Print | Product List | Glossary On
Versions: 1 2 3 4 5 6 7 8 9 10 11 12 13 14 15 16 17 18 19 20 21 22 23 24 25 26 27 28 29
000
FTUS44 KMEG 251500 AAA
TAFMEM
TAF AMD
KMEM 251500Z 2515/2612 21010KT P6SM BKN110 BKN250
     FM251600 24012G18KT P6SM VCSH SCT025 BKN060 OVC100
      TEMPO 2517/2521 -SHRA
     FM252100 27014G22KT P6SM -SHRA SCT025 OVC035
     FM260300 31016G24KT P6SM VCSH OVC030
     FM260900 34010G16KT P6SM BKN025=

USA.gov is the U.S. government's official web portal to all federal, state and local government web resources and services.